createdAt,value
2019-05-14T00:00:49.174Z,14.64
2019-05-14T00:03:22.030Z,14.62
2019-05-14T00:05:54.326Z,14.59
2019-05-14T00:08:26.445Z,14.58
2019-05-14T00:11:01.207Z,14.59
2019-05-14T00:13:34.255Z,14.51
2019-05-14T00:16:06.416Z,14.44
2019-05-14T00:18:38.652Z,14.37
2019-05-14T00:21:12.197Z,14.39
2019-05-14T00:23:44.670Z,14.41
2019-05-14T00:26:16.987Z,14.35
2019-05-14T00:28:51.208Z,14.35
2019-05-14T00:31:23.150Z,14.39
2019-05-14T00:33:55.437Z,14.33
2019-05-14T00:36:27.719Z,14.25
2019-05-14T00:55:39.086Z,14.18
2019-05-14T00:58:16.426Z,14.10
2019-05-14T01:00:52.801Z,13.98
2019-05-14T01:03:28.585Z,13.89
2019-05-14T01:06:03.183Z,13.83
2019-05-14T01:08:46.768Z,13.77
2019-05-14T01:11:25.605Z,13.83
2019-05-14T01:14:09.146Z,13.87
2019-05-14T01:16:47.299Z,13.92
2019-05-14T01:19:36.915Z,13.91
2019-05-14T01:22:13.076Z,13.88
2019-05-14T01:24:56.051Z,13.84
2019-05-14T01:27:37.128Z,13.85
2019-05-14T01:30:25.636Z,13.73
2019-05-14T01:33:01.526Z,13.65
2019-05-14T01:35:39.456Z,13.64
2019-05-14T01:38:14.906Z,13.68
2019-05-14T01:40:52.188Z,13.63
2019-05-14T01:43:33.110Z,13.60
2019-05-14T01:46:20.970Z,13.61
2019-05-14T01:48:56.268Z,13.61
2019-05-14T01:51:36.583Z,13.56
2019-05-14T01:54:21.170Z,13.53
2019-05-14T01:57:04.054Z,13.51
2019-05-14T01:59:46.116Z,13.50
2019-05-14T02:02:35.383Z,13.43
2019-05-14T02:05:23.295Z,13.39
2019-05-14T02:08:02.914Z,13.40
2019-05-14T02:10:41.981Z,13.43
2019-05-14T02:16:55.797Z,13.42
2019-05-14T02:19:43.464Z,13.41
2019-05-14T02:22:18.689Z,13.29
2019-05-14T02:25:06.496Z,13.19
2019-05-14T02:28:11.569Z,13.14
2019-05-14T02:30:59.081Z,13.13
2019-05-14T02:33:34.697Z,13.12
2019-05-14T02:37:02.099Z,13.17
2019-05-14T02:39:00.873Z,13.21
2019-05-14T02:52:13.805Z,13.12
2019-05-14T02:54:49.253Z,13.13
2019-05-14T02:57:20.258Z,13.11
2019-05-14T02:59:52.557Z,13.10
2019-05-14T03:02:24.697Z,13.21
2019-05-14T03:04:59.165Z,13.30
2019-05-14T03:07:31.063Z,13.36
2019-05-14T03:10:03.675Z,13.46
2019-05-14T03:12:39.296Z,13.46
2019-05-14T03:15:10.021Z,13.51
2019-05-14T03:17:42.400Z,13.53
2019-05-14T03:20:14.632Z,13.62
2019-05-14T03:23:01.876Z,13.63
2019-05-14T03:25:20.805Z,13.70
2019-05-14T03:27:53.120Z,13.74
2019-05-14T03:30:25.657Z,13.84
2019-05-14T03:33:02.654Z,13.86
2019-05-14T03:35:41.997Z,13.87
2019-05-14T03:38:09.474Z,13.83
2019-05-14T03:40:40.548Z,13.91
2019-05-14T03:43:12.925Z,13.96
2019-05-14T03:45:45.084Z,14.11
2019-05-14T03:48:19.053Z,14.13
2019-05-14T03:50:51.466Z,14.24
2019-05-14T03:53:23.681Z,14.28
2019-05-14T03:55:59.400Z,14.36
2019-05-14T03:58:30.598Z,14.35
2019-05-14T04:01:02.904Z,14.46
2019-05-14T04:03:35.143Z,14.53
2019-05-14T04:06:10.046Z,14.52
2019-05-14T04:08:41.628Z,14.56
2019-05-14T04:11:14.839Z,14.71
2019-05-14T04:13:49.693Z,14.77
2019-05-14T04:16:21.416Z,14.88
2019-05-14T04:18:53.520Z,14.97
2019-05-14T04:21:29.504Z,15.05
2019-05-14T04:23:59.747Z,15.15
2019-05-14T04:26:51.774Z,15.27
2019-05-14T04:29:09.889Z,15.36
2019-05-14T04:31:41.091Z,15.40
2019-05-14T04:34:13.404Z,15.41
2019-05-14T04:36:49.914Z,15.56
2019-05-14T04:39:20.199Z,15.72
2019-05-14T04:41:52.529Z,15.84
2019-05-14T04:44:25.028Z,15.98
2019-05-14T04:46:59.974Z,16.08
2019-05-14T04:49:31.480Z,16.16
2019-05-14T04:52:03.862Z,16.34
2019-05-14T04:54:39.294Z,16.38
2019-05-14T04:57:10.817Z,16.59
2019-05-14T04:59:43.360Z,16.73
2019-05-14T05:02:15.607Z,16.85
2019-05-14T05:04:50.631Z,17.01
2019-05-14T05:07:22.208Z,17.12
2019-05-14T05:09:54.449Z,17.26
2019-05-14T05:12:29.405Z,17.39
2019-05-14T05:15:00.682Z,17.55
2019-05-14T05:17:44.189Z,17.69
2019-05-14T05:20:10.425Z,17.76
2019-05-14T05:22:43.840Z,17.93
2019-05-14T05:25:15.985Z,18.12
2019-05-14T05:27:48.776Z,18.18
2019-05-14T05:30:22.167Z,18.25
2019-05-14T05:32:54.540Z,18.38
2019-05-14T05:35:29.040Z,18.44
2019-05-14T05:38:00.803Z,18.61
2019-05-14T05:40:33.212Z,18.68
2019-05-14T05:43:05.485Z,18.81
2019-05-14T05:45:38.237Z,18.96
2019-05-14T05:48:10.458Z,19.12
2019-05-14T05:50:42.915Z,19.17
2019-05-14T05:53:15.119Z,19.30
2019-05-14T05:55:48.438Z,19.38
2019-05-14T05:58:20.956Z,19.37
2019-05-14T06:00:54.566Z,19.46
2019-05-14T06:03:30.064Z,19.56
2019-05-14T06:06:00.850Z,19.68
2019-05-14T06:08:33.185Z,19.71
2019-05-14T06:11:05.494Z,19.80
2019-05-14T06:13:39.192Z,19.86
2019-05-14T06:16:11.581Z,20.12
2019-05-14T06:18:43.830Z,20.19
2019-05-14T06:21:18.678Z,20.17
2019-05-14T06:23:50.334Z,20.34
2019-05-14T06:26:22.696Z,20.38
2019-05-14T06:28:54.960Z,20.50
2019-05-14T06:31:29.110Z,20.55
2019-05-14T06:34:02.453Z,20.75
2019-05-14T06:36:36.103Z,20.68
2019-05-14T06:39:09.316Z,20.81
2019-05-14T06:41:43.006Z,20.90
2019-05-14T06:44:15.373Z,20.91
2019-05-14T06:46:48.635Z,21.09
2019-05-14T06:49:22.013Z,21.21
2019-05-14T06:51:54.172Z,21.23
2019-05-14T06:54:26.396Z,21.36
2019-05-14T06:56:58.622Z,21.46
2019-05-14T06:59:31.099Z,21.63
2019-05-14T07:02:03.349Z,21.66
2019-05-14T07:04:39.242Z,21.71
2019-05-14T07:07:10.765Z,21.80
2019-05-14T07:09:43.000Z,21.88
2019-05-14T07:12:15.283Z,21.94
2019-05-14T07:14:48.145Z,22.03
2019-05-14T07:17:21.676Z,21.98
2019-05-14T07:19:53.904Z,22.12
2019-05-14T07:22:28.147Z,22.24
2019-05-14T07:25:00.154Z,22.35
2019-05-14T07:27:34.036Z,22.48
2019-05-14T07:30:08.983Z,22.52
2019-05-14T07:32:41.406Z,22.70
2019-05-14T07:35:14.234Z,22.80
2019-05-14T07:37:48.688Z,22.74
2019-05-14T07:40:20.359Z,22.84
2019-05-14T07:42:52.684Z,22.80
2019-05-14T07:45:25.107Z,22.94
2019-05-14T07:47:58.271Z,23.04
2019-05-14T07:50:30.512Z,22.89
2019-05-14T07:53:03.329Z,22.91
2019-05-14T07:55:38.385Z,23.06
2019-05-14T07:58:10.190Z,23.02
2019-05-14T08:00:42.647Z,23.00
2019-05-14T08:03:15.071Z,23.09
2019-05-14T08:05:48.668Z,23.18
2019-05-14T08:08:20.889Z,23.16
2019-05-14T08:10:54.132Z,23.37
2019-05-14T08:13:28.219Z,23.54
2019-05-14T08:16:00.503Z,23.54
2019-05-14T08:18:32.749Z,23.49
2019-05-14T08:21:05.009Z,23.50
2019-05-14T08:23:39.243Z,23.66
2019-05-14T08:26:11.107Z,23.66
2019-05-14T08:28:43.618Z,23.71
2019-05-14T08:31:18.688Z,23.82
2019-05-14T08:33:51.974Z,23.91
2019-05-14T08:36:24.122Z,23.78
2019-05-14T08:38:58.132Z,23.99
2019-05-14T08:41:30.838Z,23.82
2019-05-14T08:44:02.992Z,23.74
2019-05-14T08:46:35.204Z,23.91
2019-05-14T08:49:08.984Z,24.10
2019-05-14T08:51:42.161Z,24.10
2019-05-14T08:54:14.294Z,23.93
2019-05-14T08:56:48.876Z,23.92
2019-05-14T08:59:20.920Z,24.05
2019-05-14T09:02:02.303Z,24.12
2019-05-14T09:04:30.282Z,24.18
2019-05-14T09:07:01.934Z,24.16
2019-05-14T09:09:34.294Z,24.31
2019-05-14T09:12:12.132Z,24.26
2019-05-14T09:14:40.283Z,24.38
2019-05-14T09:17:14.747Z,24.51
2019-05-14T09:19:58.881Z,24.50
2019-05-14T09:22:20.286Z,24.47
2019-05-14T09:24:52.457Z,24.74
2019-05-14T09:27:24.598Z,24.80
2019-05-14T09:29:58.969Z,24.59
2019-05-14T09:32:30.583Z,24.98
2019-05-14T09:35:02.755Z,25.06
2019-05-14T09:37:34.907Z,24.94
2019-05-14T09:40:08.830Z,25.01
2019-05-14T09:42:40.996Z,24.94
2019-05-14T09:45:13.099Z,25.07
2019-05-14T09:47:49.808Z,25.20
2019-05-14T09:50:23.479Z,25.24
2019-05-14T09:52:54.441Z,25.18
2019-05-14T09:55:28.223Z,24.99
2019-05-14T09:58:00.486Z,25.02
2019-05-14T10:00:32.560Z,25.19
2019-05-14T10:03:04.815Z,24.95
2019-05-14T10:05:37.199Z,24.71
2019-05-14T10:08:09.355Z,24.79
2019-05-14T10:10:44.089Z,24.90
2019-05-14T10:13:16.213Z,24.77
2019-05-14T10:15:48.646Z,24.88
2019-05-14T10:18:21.120Z,24.99
2019-05-14T10:20:53.391Z,24.87
2019-05-14T10:23:28.175Z,24.97
2019-05-14T10:25:59.767Z,25.25
2019-05-14T10:28:32.155Z,25.38
2019-05-14T10:31:04.430Z,25.53
2019-05-14T10:33:37.933Z,25.54
2019-05-14T10:36:09.984Z,25.37
2019-05-14T10:38:42.252Z,25.62
2019-05-14T10:41:14.440Z,25.74
2019-05-14T10:43:49.330Z,25.90
2019-05-14T10:46:20.430Z,25.82
2019-05-14T10:48:52.627Z,25.85
2019-05-14T10:51:24.943Z,25.72
2019-05-14T10:53:59.474Z,25.90
2019-05-14T10:56:30.955Z,25.82
2019-05-14T10:59:03.200Z,25.73
2019-05-14T11:01:35.573Z,25.40
2019-05-14T11:04:07.806Z,25.46
2019-05-14T11:06:40.029Z,25.51
2019-05-14T11:09:12.132Z,25.73
2019-05-14T11:11:44.257Z,25.65
2019-05-14T11:14:19.062Z,25.88
2019-05-14T11:16:51.851Z,25.93
2019-05-14T11:19:28.098Z,26.17
2019-05-14T11:21:59.928Z,26.31
2019-05-14T11:24:32.284Z,26.35
2019-05-14T11:27:06.138Z,26.29
2019-05-14T11:29:38.874Z,26.39
2019-05-14T11:32:11.085Z,26.23
2019-05-14T11:34:43.402Z,26.28
2019-05-14T11:37:15.784Z,25.84
2019-05-14T11:39:48.681Z,25.72
2019-05-14T11:42:21.408Z,25.87
2019-05-14T11:44:53.985Z,26.12
2019-05-14T11:47:26.229Z,26.12
2019-05-14T11:49:59.254Z,26.31
2019-05-14T11:52:31.480Z,26.34
2019-05-14T11:55:04.567Z,26.26
2019-05-14T11:57:37.932Z,26.22
2019-05-14T12:00:14.147Z,26.29
2019-05-14T12:02:52.426Z,25.96
2019-05-14T12:05:24.813Z,26.00
2019-05-14T12:07:56.983Z,25.99
2019-05-14T12:10:29.461Z,26.04
2019-05-14T12:13:01.591Z,26.01
2019-05-14T12:15:33.700Z,25.97
2019-05-14T12:18:06.030Z,25.97
2019-05-14T12:20:39.724Z,26.07
2019-05-14T12:23:12.052Z,26.01
2019-05-14T12:25:45.318Z,25.71
2019-05-14T12:28:19.125Z,25.88
2019-05-14T12:30:51.410Z,25.84
2019-05-14T12:33:23.620Z,25.87
2019-05-14T12:35:55.975Z,25.78
2019-05-14T12:38:29.675Z,25.78
2019-05-14T12:41:02.094Z,25.76
2019-05-14T12:43:34.546Z,25.79
2019-05-14T12:46:10.066Z,25.70
2019-05-14T12:48:40.685Z,25.58
2019-05-14T12:51:13.294Z,25.72
2019-05-14T12:53:45.395Z,25.77
2019-05-14T12:56:18.784Z,25.74
2019-05-14T12:58:52.358Z,25.64
2019-05-14T13:01:24.632Z,25.69
2019-05-14T13:03:59.079Z,25.64
2019-05-14T13:06:30.822Z,25.65
2019-05-14T13:09:04.821Z,25.64
2019-05-14T13:11:41.270Z,25.47
2019-05-14T13:14:11.013Z,25.50
2019-05-14T13:16:43.287Z,25.55
2019-05-14T13:19:15.760Z,25.56
2019-05-14T13:21:48.966Z,25.57
2019-05-14T13:24:21.962Z,25.52
2019-05-14T13:26:54.118Z,25.54
2019-05-14T13:29:28.737Z,25.51
2019-05-14T13:32:00.425Z,25.43
2019-05-14T13:34:33.598Z,25.43
2019-05-14T13:37:05.969Z,25.46
2019-05-14T13:39:39.817Z,25.49
2019-05-14T13:42:12.354Z,25.49
2019-05-14T13:44:44.711Z,25.48
2019-05-14T13:47:18.208Z,25.43
2019-05-14T13:49:50.895Z,25.49
2019-05-14T13:52:23.288Z,25.43
2019-05-14T13:54:55.488Z,25.44
2019-05-14T13:57:28.685Z,25.55
2019-05-14T14:00:01.165Z,25.52
2019-05-14T14:02:37.373Z,25.56
2019-05-14T14:05:08.854Z,25.59
2019-05-14T14:07:44.493Z,25.58
2019-05-14T14:10:14.747Z,25.42
2019-05-14T14:12:49.639Z,25.49
2019-05-14T14:15:20.810Z,25.44
2019-05-14T14:17:53.023Z,25.53
2019-05-14T14:20:25.269Z,25.57
2019-05-14T14:22:58.678Z,25.55
2019-05-14T14:25:31.453Z,25.63
2019-05-14T14:28:03.748Z,25.51
2019-05-14T14:30:36.104Z,25.60
2019-05-14T14:33:08.264Z,25.55
2019-05-14T14:35:40.791Z,25.62
2019-05-14T14:38:13.001Z,25.63
2019-05-14T14:40:45.486Z,25.62
2019-05-14T14:43:18.821Z,25.65
2019-05-14T14:45:51.622Z,25.55
2019-05-14T14:48:23.953Z,25.58
2019-05-14T14:50:58.668Z,25.53
2019-05-14T14:53:45.962Z,25.54
2019-05-14T14:56:04.339Z,25.50
2019-05-14T14:58:39.014Z,25.52
2019-05-14T15:01:10.639Z,25.47
2019-05-14T15:03:42.890Z,25.46
2019-05-14T15:06:15.216Z,25.50
2019-05-14T15:08:49.770Z,25.46
2019-05-14T15:11:21.657Z,25.42
2019-05-14T15:13:54.968Z,25.40
2019-05-14T15:16:29.161Z,25.35
2019-05-14T15:19:02.073Z,25.37
2019-05-14T15:21:34.223Z,25.35
2019-05-14T15:24:14.197Z,25.31
2019-05-14T15:26:40.152Z,25.31
2019-05-14T15:29:12.261Z,25.32
2019-05-14T15:31:44.438Z,25.32
2019-05-14T15:34:19.176Z,25.29
2019-05-14T15:36:51.349Z,25.27
2019-05-14T15:39:23.496Z,25.20
2019-05-14T15:41:55.687Z,25.14
2019-05-14T15:44:46.912Z,25.10
2019-05-14T15:47:01.603Z,25.04
2019-05-14T15:49:33.674Z,25.04
2019-05-14T15:52:08.313Z,24.96
2019-05-14T15:54:46.912Z,24.90
2019-05-14T15:57:13.300Z,24.89
2019-05-14T15:59:45.468Z,24.84
2019-05-14T16:02:20.123Z,24.73
2019-05-14T16:04:51.449Z,24.66
2019-05-14T16:07:23.573Z,24.53
2019-05-14T16:09:55.678Z,24.48
2019-05-14T16:12:28.678Z,24.40
2019-05-14T16:15:03.820Z,24.35
2019-05-14T16:17:45.335Z,24.29
2019-05-14T16:20:11.153Z,24.23
2019-05-14T16:22:43.411Z,24.19
2019-05-14T16:25:15.498Z,24.10
2019-05-14T16:27:47.782Z,24.03
2019-05-14T16:30:20.015Z,23.99
2019-05-14T16:32:52.188Z,23.89
2019-05-14T16:35:24.293Z,23.81
2019-05-14T16:37:56.389Z,23.71
2019-05-14T16:40:28.936Z,23.57
2019-05-14T16:43:01.270Z,23.47
2019-05-14T16:45:33.442Z,23.39
2019-05-14T16:48:05.541Z,23.27
2019-05-14T16:50:37.786Z,23.20
2019-05-14T16:53:11.585Z,23.05
2019-05-14T16:55:43.968Z,22.91
2019-05-14T16:58:19.442Z,22.83
2019-05-14T17:00:50.465Z,22.75
2019-05-14T17:03:22.731Z,22.67
2019-05-14T17:05:55.010Z,22.61
2019-05-14T17:08:28.430Z,22.55
2019-05-14T17:11:00.781Z,22.50
2019-05-14T17:13:34.094Z,22.42
2019-05-14T17:16:08.570Z,22.34
2019-05-14T17:18:40.321Z,22.20
2019-05-14T17:21:14.139Z,22.09
2019-05-14T17:23:48.845Z,22.01
2019-05-14T17:26:21.363Z,21.87
2019-05-14T17:28:53.482Z,21.76
2019-05-14T17:31:25.562Z,21.64
2019-05-14T17:33:58.490Z,21.56
2019-05-14T17:36:32.199Z,21.49
2019-05-14T17:39:08.463Z,21.37
2019-05-14T17:41:41.915Z,21.29
2019-05-14T17:44:14.163Z,21.18
2019-05-14T17:46:48.702Z,21.14
2019-05-14T17:49:20.214Z,21.09
2019-05-14T17:51:52.437Z,21.09
2019-05-14T17:54:24.663Z,20.99
2019-05-14T17:56:59.046Z,20.87
2019-05-14T17:59:33.575Z,20.85
2019-05-14T18:02:05.027Z,20.78
2019-05-14T18:04:37.231Z,20.64
2019-05-14T18:07:09.340Z,20.57
2019-05-14T18:09:42.500Z,20.54
2019-05-14T18:12:14.761Z,20.44
2019-05-14T18:14:48.513Z,20.37
2019-05-14T18:17:22.041Z,20.33
2019-05-14T18:19:58.835Z,20.26
2019-05-14T18:22:31.068Z,20.14
2019-05-14T18:25:03.312Z,19.94
2019-05-14T18:27:35.472Z,19.89
2019-05-14T18:30:09.161Z,19.83
2019-05-14T18:32:42.064Z,19.76
2019-05-14T18:35:14.304Z,19.67
2019-05-14T18:37:48.223Z,19.56
2019-05-14T18:40:20.664Z,19.46
2019-05-14T18:42:52.997Z,19.41
2019-05-14T18:45:25.266Z,19.34
2019-05-14T18:47:59.133Z,19.32
2019-05-14T18:50:31.500Z,19.23
2019-05-14T18:53:03.872Z,19.16
2019-05-14T18:55:38.395Z,19.05
2019-05-14T18:58:11.522Z,19.01
2019-05-14T19:00:43.710Z,18.92
2019-05-14T19:03:15.917Z,18.82
2019-05-14T19:05:48.374Z,18.74
2019-05-14T19:08:21.892Z,18.51
2019-05-14T19:10:54.103Z,18.46
2019-05-14T19:13:28.202Z,18.48
2019-05-14T19:16:00.469Z,18.47
2019-05-14T19:18:32.738Z,18.42
2019-05-14T19:21:05.805Z,18.40
2019-05-14T19:23:38.442Z,18.36
2019-05-14T19:26:10.809Z,18.38
2019-05-14T19:28:43.102Z,18.44
2019-05-14T19:31:15.380Z,18.45
2019-05-14T19:33:48.816Z,18.45
2019-05-14T19:36:23.036Z,18.47
2019-05-14T19:38:55.261Z,18.40
2019-05-14T19:41:28.118Z,18.35
2019-05-14T19:44:00.628Z,18.33
2019-05-14T19:46:32.888Z,18.31
2019-05-14T19:49:05.181Z,18.27
2019-05-14T19:51:38.752Z,18.29
2019-05-14T19:54:12.261Z,18.27
2019-05-14T19:56:55.695Z,18.19
2019-05-14T19:59:18.460Z,18.15
2019-05-14T20:01:50.735Z,18.06
2019-05-14T20:04:23.204Z,17.97
2019-05-14T20:06:55.475Z,17.87
2019-05-14T20:09:28.179Z,17.80
2019-05-14T20:12:00.640Z,17.72
2019-05-14T20:14:32.915Z,17.60
2019-05-14T20:17:05.285Z,17.55
2019-05-14T20:19:39.730Z,17.53
2019-05-14T20:22:12.381Z,17.46
2019-05-14T20:24:44.617Z,17.41
2019-05-14T20:27:16.953Z,17.44
2019-05-14T20:29:49.144Z,17.46
2019-05-14T20:32:21.433Z,17.46
2019-05-14T20:34:53.762Z,17.51
2019-05-14T20:37:26.026Z,17.42
2019-05-14T20:39:59.062Z,17.39
2019-05-14T20:42:31.551Z,17.33
2019-05-14T20:45:04.860Z,17.31
2019-05-14T20:47:39.079Z,17.29
2019-05-14T20:50:11.073Z,17.30
2019-05-14T20:52:43.443Z,17.25
2019-05-14T20:55:15.718Z,17.21
2019-05-14T20:57:48.904Z,17.12
2019-05-14T21:00:21.273Z,16.96
2019-05-14T21:02:53.594Z,16.80
2019-05-14T21:05:25.785Z,16.78
2019-05-14T21:07:58.878Z,16.80
2019-05-14T21:10:31.468Z,16.78
2019-05-14T21:13:03.722Z,16.72
2019-05-14T21:15:35.932Z,16.67
2019-05-14T21:18:08.491Z,16.58
2019-05-14T21:20:40.847Z,16.53
2019-05-14T21:23:13.101Z,16.52
2019-05-14T21:25:45.285Z,16.56
2019-05-14T21:28:17.499Z,16.57
2019-05-14T21:30:49.612Z,16.55
2019-05-14T21:33:21.875Z,16.56
2019-05-14T21:35:54.153Z,16.60
2019-05-14T21:38:28.542Z,16.57
2019-05-14T21:41:00.544Z,16.54
2019-05-14T21:43:32.814Z,16.53
2019-05-14T21:46:05.095Z,16.54
2019-05-14T21:48:38.816Z,16.42
2019-05-14T21:51:11.269Z,16.31
2019-05-14T21:53:43.479Z,16.26
2019-05-14T21:56:18.533Z,16.18
2019-05-14T21:58:50.635Z,16.08
2019-05-14T22:01:23.034Z,16.05
2019-05-14T22:03:55.207Z,16.05
2019-05-14T22:06:29.094Z,15.95
2019-05-14T22:09:01.579Z,15.92
2019-05-14T22:11:35.501Z,15.85
2019-05-14T22:14:08.000Z,15.80
2019-05-14T22:16:40.347Z,15.85
2019-05-14T22:19:12.473Z,15.89
2019-05-14T22:21:44.805Z,15.93
2019-05-14T22:24:18.771Z,15.94
2019-05-14T22:26:51.030Z,15.93
2019-05-14T22:29:23.253Z,15.90
2019-05-14T22:31:55.437Z,15.89
2019-05-14T22:34:28.124Z,15.91
2019-05-14T22:37:00.494Z,15.85
2019-05-14T22:39:32.841Z,15.80
2019-05-14T22:42:05.072Z,15.69
2019-05-14T22:44:37.391Z,15.66
2019-05-14T22:47:09.651Z,15.54
2019-05-14T22:49:41.761Z,15.53
2019-05-14T22:52:14.111Z,15.49
2019-05-14T22:54:46.293Z,15.38
2019-05-14T22:57:18.767Z,15.34
2019-05-14T22:59:51.253Z,15.30
2019-05-14T23:02:23.458Z,15.29
2019-05-14T23:04:55.779Z,15.26
2019-05-14T23:07:28.042Z,15.27
2019-05-14T23:10:00.317Z,15.29
2019-05-14T23:12:32.586Z,15.32
2019-05-14T23:15:06.366Z,15.34
2019-05-14T23:17:39.084Z,15.34
2019-05-14T23:20:11.545Z,15.31
2019-05-14T23:22:43.818Z,15.29
2019-05-14T23:25:18.265Z,15.27
2019-05-14T23:27:51.203Z,15.24
2019-05-14T23:30:38.516Z,15.07
2019-05-14T23:33:10.772Z,15.10
2019-05-14T23:35:43.207Z,14.97
2019-05-14T23:38:15.569Z,14.96
2019-05-14T23:40:49.374Z,14.90
2019-05-14T23:43:21.747Z,14.91
2019-05-14T23:45:54.035Z,14.89
2019-05-14T23:48:26.220Z,14.85
2019-05-14T23:50:58.544Z,14.74
2019-05-14T23:53:30.948Z,14.73
2019-05-14T23:56:03.153Z,14.74
2019-05-14T23:58:35.499Z,14.80
